Time;durP1;ratioP1;P1;durP2;ratioP2;P2;SDS_P1;SDS_P2;PMS_P1;PMS_P2;Temp;Humidity;BMP_temperature;BMP_pressure;BME280_temperature;BME280_humidity;BME280_pressure;Samples;Min_cycle;Max_cycle;Signal;HPM_P1;HPM_P2
2023/05/23 00:00:54;;;;;;;;;30.00;23.00;;;;;19.20;58.34;101542.34;5015002;28;45544;-76
2023/05/23 00:03:23;;;;;;;;;25.67;22.33;;;;;19.15;58.09;101545.09;5014524;28;45526;-77
2023/05/23 00:05:50;;;;;;;;;33.00;24.33;;;;;19.22;57.89;101561.75;5013218;28;45498;-74
2023/05/23 00:08:16;;;;;;;;;28.00;21.67;;;;;19.14;57.74;101553.94;5017182;28;45476;-71
2023/05/23 00:10:42;;;;;;;;;28.67;22.67;;;;;19.13;57.71;101551.34;5019523;28;45534;-78
2023/05/23 00:13:11;;;;;;;;;28.00;21.00;;;;;19.13;57.55;101556.66;4997138;28;45550;-71
2023/05/23 00:15:42;;;;;;;;;29.67;25.00;;;;;19.04;57.50;101536.47;5009843;28;45535;-78
2023/05/23 00:18:15;;;;;;;;;24.67;19.33;;;;;19.10;57.60;101546.97;4999075;28;45894;-79
2023/05/23 00:20:41;;;;;;;;;27.67;23.67;;;;;19.09;57.69;101544.34;5018093;28;45474;-78
2023/05/23 00:23:08;;;;;;;;;29.33;24.00;;;;;19.11;57.73;101547.84;5016058;28;45421;-76
2023/05/23 00:25:35;;;;;;;;;26.00;21.67;;;;;19.06;57.88;101548.81;5013313;28;45525;-73
2023/05/23 00:28:04;;;;;;;;;22.33;19.67;;;;;18.95;57.80;101532.22;5016942;28;45429;-71
2023/05/23 00:30:31;;;;;;;;;23.67;18.67;;;;;19.05;57.43;101547.06;5000733;28;45536;-73
2023/05/23 00:32:57;;;;;;;;;22.33;20.00;;;;;19.05;57.67;101549.72;5017867;28;45526;-75
2023/05/23 00:35:23;;;;;;;;;28.67;22.00;;;;;19.06;57.71;101550.59;5017308;28;45404;-79
2023/05/23 00:37:50;;;;;;;;;30.33;28.33;;;;;19.03;57.35;101551.53;5017353;28;45885;-75
2023/05/23 00:40:19;;;;;;;;;28.00;22.00;;;;;18.97;57.55;101545.47;5015247;28;45404;-71
2023/05/23 00:42:46;;;;;;;;;26.67;25.00;;;;;18.90;57.35;101528.78;5013957;28;45376;-77
2023/05/23 00:45:13;;;;;;;;;27.33;23.33;;;;;18.90;57.35;101538.53;5014040;28;45401;-80
2023/05/23 00:47:39;;;;;;;;;26.67;23.00;;;;;18.61;57.38;101498.34;5011520;28;47366;-78
2023/05/23 00:50:08;;;;;;;;;22.00;20.67;;;;;18.83;57.66;101543.06;4995349;28;45420;-78
2023/05/23 00:52:34;;;;;;;;;31.00;22.67;;;;;18.84;57.42;101552.81;5014102;28;45523;-75
2023/05/23 00:55:00;;;;;;;;;29.00;24.00;;;;;18.77;57.52;101544.06;5012642;28;45654;-73
2023/05/23 00:57:27;;;;;;;;;25.33;24.33;;;;;18.52;57.52;101511.78;5013758;28;45435;-75
2023/05/23 00:59:53;;;;;;;;;27.00;19.67;;;;;18.70;57.79;101545.06;4995693;28;45360;-79
2023/05/23 01:02:20;;;;;;;;;28.00;22.00;;;;;18.59;57.59;101525.81;4995387;28;45400;-79
2023/05/23 01:04:53;;;;;;;;;19.67;18.67;;;;;18.55;57.55;101509.06;5015434;28;45420;-76
2023/05/23 01:07:19;;;;;;;;;21.67;18.67;;;;;18.61;57.62;101526.66;4996731;28;47656;-72
2023/05/23 01:09:46;;;;;;;;;26.67;21.00;;;;;18.62;57.38;101523.97;5011309;28;45808;-70
2023/05/23 01:12:44;;;;;;;;;28.67;22.33;;;;;18.71;57.33;101532.66;4998671;28;45277;-80
2023/05/23 01:15:16;;;;;;;;;30.33;24.67;;;;;18.62;57.35;101533.69;5000009;28;45483;-79
2023/05/23 01:18:08;;;;;;;;;19.33;17.67;;;;;18.64;57.46;101537.22;5018357;28;46274;-81
2023/05/23 01:20:44;;;;;;;;;22.33;19.00;;;;;18.61;57.13;101531.97;5016273;28;45544;-72
2023/05/23 01:23:24;;;;;;;;;23.00;22.00;;;;;18.63;56.84;101527.50;5016438;28;45482;-79
2023/05/23 01:26:04;;;;;;;;;21.67;17.67;;;;;18.72;56.71;101551.22;5016993;28;45388;-74
2023/05/23 01:28:35;;;;;;;;;18.67;15.33;;;;;18.70;56.93;101546.81;5017017;28;45731;-76
2023/05/23 01:31:03;;;;;;;;;22.00;19.67;;;;;18.72;56.41;101550.31;5016843;28;45962;-77
2023/05/23 01:33:31;;;;;;;;;24.33;19.00;;;;;18.72;56.45;101552.97;4999050;28;45729;-77
2023/05/23 01:36:01;;;;;;;;;22.33;19.33;;;;;18.69;56.78;101550.38;5018565;28;45555;-81
2023/05/23 01:38:27;;;;;;;;;20.33;16.67;;;;;18.73;57.07;101555.63;5020810;28;45419;-81
2023/05/23 01:40:53;;;;;;;;;28.67;24.67;;;;;18.64;56.95;101539.88;5017688;28;45444;-76
2023/05/23 01:43:19;;;;;;;;;25.33;22.00;;;;;18.67;56.93;101552.19;5016996;28;45832;-80
2023/05/23 01:45:46;;;;;;;;;22.00;20.33;;;;;18.63;57.20;101565.53;5002551;28;45646;-78
2023/05/23 01:48:14;;;;;;;;;19.00;17.33;;;;;18.62;57.26;101566.41;5002512;28;45461;-79
2023/05/23 01:50:44;;;;;;;;;21.33;18.67;;;;;18.46;56.98;101533.13;5020551;28;45550;-80
2023/05/23 01:53:11;;;;;;;;;23.00;17.67;;;;;18.59;56.79;101561.16;5018439;28;45305;-81
2023/05/23 01:55:39;;;;;;;;;21.33;19.00;;;;;18.58;56.69;101562.09;5016716;28;45364;-75
2023/05/23 01:58:05;;;;;;;;;19.33;14.33;;;;;18.62;56.85;101571.72;5015313;28;47996;-80
2023/05/23 02:00:31;;;;;;;;;20.33;18.33;;;;;18.58;56.75;101556.78;5016105;28;45521;-74
2023/05/23 02:02:56;;;;;;;;;23.67;20.67;;;;;18.62;56.83;101561.09;5016898;28;45456;-80
2023/05/23 02:05:22;;;;;;;;;19.67;18.67;;;;;18.60;56.77;101562.03;5000766;28;45456;-80
2023/05/23 02:07:48;;;;;;;;;23.00;17.00;;;;;18.57;56.90;101573.59;5021677;28;46189;-74
2023/05/23 02:10:13;;;;;;;;;24.33;17.33;;;;;18.36;56.60;101539.47;5001601;28;45406;-71
2023/05/23 02:12:39;;;;;;;;;24.67;20.00;;;;;18.50;57.03;101566.63;5020717;28;45441;-80
2023/05/23 02:15:05;;;;;;;;;22.67;19.00;;;;;18.49;57.01;101566.69;5021152;28;45649;-78
2023/05/23 02:17:30;;;;;;;;;26.67;22.33;;;;;18.43;57.05;101549.94;5022723;28;46205;-77
2023/05/23 02:19:56;;;;;;;;;21.00;17.67;;;;;18.46;56.99;101567.63;5018942;28;45439;-82
2023/05/23 02:22:25;;;;;;;;;21.67;17.00;;;;;18.40;57.29;101560.63;5020224;28;45423;-78
2023/05/23 02:24:51;;;;;;;;;19.33;17.33;;;;;18.29;57.30;101546.66;5020885;28;45373;-80
2023/05/23 02:27:17;;;;;;;;;24.67;20.33;;;;;18.39;57.37;101569.50;5017824;28;45493;-74
2023/05/23 02:29:43;;;;;;;;;25.00;18.67;;;;;18.42;57.61;101574.72;5015700;28;45630;-78
2023/05/23 02:32:09;;;;;;;;;19.33;18.33;;;;;18.35;57.30;101565.13;5015496;28;45481;-79
2023/05/23 02:34:34;;;;;;;;;34.00;27.00;;;;;18.39;58.03;101588.06;5014940;28;45373;-74
2023/05/23 02:37:00;;;;;;;;;27.33;22.00;;;;;18.16;57.73;101546.00;4998659;28;46962;-70
2023/05/23 02:39:26;;;;;;;;;24.33;19.00;;;;;18.22;57.65;101545.91;4999785;28;45805;-78
2023/05/23 02:41:52;;;;;;;;;22.67;19.67;;;;;18.36;57.85;101571.31;5016295;28;45744;-78
2023/05/23 02:44:18;;;;;;;;;18.67;18.67;;;;;18.35;57.85;101562.47;5019230;28;45360;-79
2023/05/23 02:46:48;;;;;;;;;18.67;18.67;;;;;18.34;58.14;101555.44;4998054;28;45506;-79
2023/05/23 02:49:14;;;;;;;;;21.33;18.67;;;;;18.30;58.06;101550.22;5015730;28;45333;-75
2023/05/23 02:51:39;;;;;;;;;22.00;19.33;;;;;18.39;58.17;101574.81;5000548;28;45429;-77
2023/05/23 02:54:05;;;;;;;;;19.33;17.67;;;;;18.34;58.11;101560.75;5020170;28;45472;-78
2023/05/23 02:56:30;;;;;;;;;29.00;23.67;;;;;18.36;57.86;101558.03;5019869;28;45431;-77
2023/05/23 02:58:56;;;;;;;;;33.67;25.67;;;;;18.14;58.31;101558.41;5000793;28;45357;-81
2023/05/23 03:01:22;;;;;;;;;29.33;26.00;;;;;18.21;58.58;101575.09;5015719;28;45407;-75
2023/05/23 03:03:47;;;;;;;;;32.67;22.67;;;;;18.18;58.56;101589.28;5015757;28;45451;-77
2023/05/23 03:06:13;;;;;;;;;30.00;24.67;;;;;18.03;58.54;101570.94;4997157;28;47111;-79
2023/05/23 03:08:44;;;;;;;;;18.67;16.33;;;;;18.07;58.60;101593.88;5015490;28;45484;-77
2023/05/23 03:11:18;;;;;;;;;17.33;17.00;;;;;18.09;58.28;101588.56;4999006;28;45854;-81
2023/05/23 03:13:43;;;;;;;;;22.00;17.33;;;;;17.92;58.30;101559.66;5020609;28;45294;-73
2023/05/23 03:16:11;;;;;;;;;20.67;16.33;;;;;18.00;58.21;101579.81;5019239;28;45518;-77
2023/05/23 03:18:36;;;;;;;;;22.67;19.00;;;;;17.94;58.15;101560.53;5019580;28;45401;-72
2023/05/23 03:21:02;;;;;;;;;23.00;20.33;;;;;18.08;58.21;101578.84;5015689;28;45504;-74
2023/05/23 03:23:27;;;;;;;;;25.00;22.67;;;;;18.01;58.43;101578.06;5015568;28;45487;-77
2023/05/23 03:26:03;;;;;;;;;22.33;17.00;;;;;18.02;58.36;101583.34;5015429;28;46146;-81
2023/05/23 03:28:30;;;;;;;;;23.33;20.33;;;;;17.97;58.17;101576.38;5015249;28;45788;-75
2023/05/23 03:30:56;;;;;;;;;22.67;18.67;;;;;17.92;58.39;101565.84;5016167;28;46137;-76
2023/05/23 03:33:22;;;;;;;;;17.67;15.00;;;;;17.89;58.15;101564.97;5015473;28;45597;-80
2023/05/23 03:35:47;;;;;;;;;22.33;19.00;;;;;17.94;58.14;101576.41;4997022;28;46692;-75
2023/05/23 03:38:13;;;;;;;;;33.00;24.00;;;;;17.95;58.26;101596.72;5018361;28;45340;-76
2023/05/23 03:40:39;;;;;;;;;27.33;20.67;;;;;17.94;58.44;101608.22;5014252;28;45516;-78
2023/05/23 03:43:06;;;;;;;;;22.67;20.67;;;;;17.88;57.96;101603.88;5016926;28;45397;-79
2023/05/23 03:45:32;;;;;;;;;23.33;21.00;;;;;17.86;58.42;101605.66;5016674;28;45399;-77
2023/05/23 03:47:58;;;;;;;;;34.50;30.50;;;;;17.78;58.35;101600.44;5015390;28;45816;-77
2023/05/23 03:50:24;;;;;;;;;38.25;31.25;;;;;17.73;58.59;101604.06;5001098;28;45499;-81
2023/05/23 03:52:50;;;;;;;;;34.33;22.00;;;;;17.67;58.96;101612.97;5019917;28;45543;-76
2023/05/23 03:55:21;;;;;;;;;24.33;19.33;;;;;17.64;58.88;101618.31;5015789;28;45515;-80
2023/05/23 03:57:53;;;;;;;;;24.00;22.33;;;;;17.64;59.34;101622.72;4999160;28;45477;-77
2023/05/23 04:00:19;;;;;;;;;34.67;23.67;;;;;17.62;59.92;101613.94;5019250;28;45352;-78
2023/05/23 04:02:45;;;;;;;;;28.00;22.00;;;;;17.64;59.52;101617.44;5001904;28;45262;-76
2023/05/23 04:05:12;;;;;;;;;28.00;26.33;;;;;17.57;59.12;101613.97;5014773;28;46106;-79
2023/05/23 04:07:37;;;;;;;;;36.00;26.33;;;;;17.49;59.05;101607.94;5016244;28;45372;-78
2023/05/23 04:10:04;;;;;;;;;29.00;24.67;;;;;17.57;58.90;101616.63;5019634;28;45471;-76
2023/05/23 04:12:30;;;;;;;;;35.25;26.75;;;;;17.53;59.00;101618.44;5017054;28;45630;-75
2023/05/23 04:14:59;;;;;;;;;24.00;22.00;;;;;17.48;59.32;101617.63;5014791;28;46163;-80
2023/05/23 04:17:24;;;;;;;;;36.50;28.50;;;;;17.42;58.79;101606.25;5014395;28;45676;-80
2023/05/23 04:19:50;;;;;;;;;35.67;29.00;;;;;17.41;59.46;101637.13;5015029;28;45343;-77
2023/05/23 04:22:16;;;;;;;;;36.67;28.67;;;;;17.30;59.78;101626.69;5014935;28;45440;-73
2023/05/23 04:24:57;;;;;;;;;26.33;23.33;;;;;17.25;59.62;101611.72;4995923;28;45625;-78
2023/05/23 04:27:24;;;;;;;;;30.33;21.67;;;;;17.36;59.98;101637.19;5016608;28;45403;-81
2023/05/23 04:29:51;;;;;;;;;21.67;20.00;;;;;17.31;59.91;101620.47;5014584;28;45676;-77
2023/05/23 04:32:18;;;;;;;;;27.00;22.00;;;;;17.41;59.76;101631.81;4996528;28;45569;-80
2023/05/23 04:34:44;;;;;;;;;28.67;21.00;;;;;17.44;59.59;101636.22;5017286;28;46192;-77
2023/05/23 04:37:10;;;;;;;;;25.67;25.00;;;;;17.41;59.56;101626.53;4995872;28;45533;-77
2023/05/23 04:39:35;;;;;;;;;25.00;20.33;;;;;17.41;59.46;101625.66;5015778;28;45482;-78
2023/05/23 04:42:01;;;;;;;;;19.33;17.00;;;;;17.43;59.62;101634.47;5018293;28;45372;-79
2023/05/23 04:44:29;;;;;;;;;19.33;17.67;;;;;17.50;58.95;101636.16;5013911;28;45460;-76
2023/05/23 04:46:55;;;;;;;;;34.25;28.00;;;;;17.36;59.28;101610.69;5013616;28;45475;-73
2023/05/23 04:49:21;;;;;;;;;23.67;22.33;;;;;17.34;59.25;101622.22;5017866;28;45377;-80
2023/05/23 04:51:47;;;;;;;;;24.67;22.00;;;;;17.44;59.60;101645.06;5016490;28;45361;-74
2023/05/23 04:54:13;;;;;;;;;30.00;24.67;;;;;17.38;59.62;101646.00;4994784;28;47586;-76
2023/05/23 04:56:38;;;;;;;;;27.67;22.33;;;;;17.15;59.76;101619.75;5013744;28;45535;-78
2023/05/23 04:59:04;;;;;;;;;22.33;17.67;;;;;17.28;59.78;101647.00;5012231;28;45403;-76
2023/05/23 05:01:30;;;;;;;;;33.33;28.00;;;;;17.21;60.34;101641.78;5013771;28;45456;-73
2023/05/23 05:03:58;;;;;;;;;29.67;22.00;;;;;17.04;61.37;101647.28;5013627;28;46034;-82
2023/05/23 05:06:23;;;;;;;;;23.00;21.67;;;;;16.95;62.08;101641.16;5013830;28;45444;-80
2023/05/23 05:08:49;;;;;;;;;27.25;26.50;;;;;16.91;61.84;101639.44;4996120;28;45695;-81
2023/05/23 05:11:14;;;;;;;;;22.00;17.67;;;;;16.91;62.10;101651.78;4999373;28;45458;-79
2023/05/23 05:13:41;;;;;;;;;33.00;29.00;;;;;16.90;62.11;101653.56;5014800;28;45887;-81
2023/05/23 05:16:07;;;;;;;;;24.50;21.50;;;;;16.78;62.07;101644.84;4999227;28;45376;-80
2023/05/23 05:18:32;;;;;;;;;28.00;24.00;;;;;16.78;62.02;101645.72;5000851;28;45357;-77
2023/05/23 05:20:58;;;;;;;;;27.67;20.67;;;;;16.85;61.84;101643.94;5000195;28;45426;-81
2023/05/23 05:23:27;;;;;;;;;24.00;19.67;;;;;16.77;62.05;101622.78;5016465;28;45760;-81
2023/05/23 05:25:55;;;;;;;;;25.33;22.67;;;;;16.97;61.83;101653.53;5014554;28;45529;-75
2023/05/23 05:28:20;;;;;;;;;20.33;16.67;;;;;17.05;61.64;101657.81;5013163;28;45352;-75
2023/05/23 05:30:52;;;;;;;;;18.67;16.67;;;;;17.03;61.50;101648.16;4999440;28;45471;-77
2023/05/23 05:33:23;;;;;;;;;24.67;22.00;;;;;17.10;61.27;101649.84;5016231;28;45629;-78
2023/05/23 05:35:53;;;;;;;;;18.67;15.67;;;;;17.06;60.97;101640.16;5013824;28;45430;-75
2023/05/23 05:38:18;;;;;;;;;16.33;16.33;;;;;17.23;60.88;101653.25;5013706;28;45529;-79
2023/05/23 05:40:44;;;;;;;;;19.33;17.33;;;;;17.25;60.98;101660.28;5013461;28;45250;-69
2023/05/23 05:43:10;;;;;;;;;23.50;21.25;;;;;17.25;60.56;101651.44;5016921;28;46400;-76
2023/05/23 05:45:35;;;;;;;;;18.67;18.67;;;;;17.10;60.71;101642.75;5012374;28;45681;-79
2023/05/23 05:48:02;;;;;;;;;28.33;19.00;;;;;17.19;60.58;101656.81;4995630;28;45764;-76
2023/05/23 05:50:27;;;;;;;;;21.33;17.67;;;;;17.16;60.75;101655.94;5015892;28;45606;-79
2023/05/23 05:52:53;;;;;;;;;24.33;22.67;;;;;17.23;61.03;101674.44;4996335;28;46717;-75
2023/05/23 05:55:18;;;;;;;;;18.33;17.67;;;;;17.09;61.07;101648.97;5019043;28;45487;-72
2023/05/23 05:57:44;;;;;;;;;19.33;16.33;;;;;17.19;60.98;101670.06;4998020;28;45470;-73
2023/05/23 06:00:13;;;;;;;;;17.67;15.67;;;;;17.13;60.83;101653.34;5014175;28;45372;-78
2023/05/23 06:02:42;;;;;;;;;22.67;17.33;;;;;17.19;60.87;101665.63;5017471;28;46075;-74
2023/05/23 06:05:11;;;;;;;;;19.67;13.67;;;;;17.28;60.93;101683.19;5017533;28;45392;-75
2023/05/23 06:07:37;;;;;;;;;17.00;14.67;;;;;17.28;60.78;101670.81;4999173;28;45519;-77
2023/05/23 06:10:04;;;;;;;;;19.67;17.33;;;;;17.32;60.55;101676.94;5021658;28;45514;-75
2023/05/23 06:12:30;;;;;;;;;15.67;14.67;;;;;17.34;60.68;101675.16;5019856;28;45521;-75
2023/05/23 06:14:55;;;;;;;;;16.33;13.00;;;;;17.32;60.45;101679.59;4999037;28;45386;-75
2023/05/23 06:17:21;;;;;;;;;19.33;18.33;;;;;17.25;60.41;101649.69;5018561;28;45511;-78
2023/05/23 06:19:47;;;;;;;;;16.67;11.33;;;;;17.42;60.64;101677.75;5023037;28;45513;-78
2023/05/23 06:22:13;;;;;;;;;14.33;11.67;;;;;17.25;61.40;101641.75;5015439;28;46704;-73
2023/05/23 06:24:38;;;;;;;;;9.67;5.67;;;;;17.41;60.69;101670.69;5014586;28;45593;-81
2023/05/23 06:27:04;;;;;;;;;15.33;13.00;;;;;17.33;60.42;101646.94;4998247;28;45408;-76
2023/05/23 06:29:34;;;;;;;;;21.00;17.67;;;;;17.29;60.42;101646.09;5018475;28;45385;-71
2023/05/23 06:32:00;;;;;;;;;19.00;16.00;;;;;17.37;60.23;101662.78;4996887;28;47779;-75
2023/05/23 06:34:26;;;;;;;;;28.67;20.67;;;;;17.35;60.17;101663.69;5015082;28;45441;-70
2023/05/23 06:36:51;;;;;;;;;21.67;19.00;;;;;17.23;60.47;101662.06;5015437;28;45725;-78
2023/05/23 06:39:17;;;;;;;;;20.67;19.00;;;;;17.09;61.02;101643.66;5013585;28;45337;-74
2023/05/23 06:41:42;;;;;;;;;16.33;14.67;;;;;17.12;61.14;101659.50;5018364;28;45901;-79
2023/05/23 06:44:08;;;;;;;;;19.33;18.33;;;;;17.04;61.15;101653.44;5014582;28;45547;-76
2023/05/23 06:46:34;;;;;;;;;16.33;14.00;;;;;17.12;61.20;101674.53;5016764;28;45349;-77
2023/05/23 06:48:59;;;;;;;;;21.00;19.33;;;;;17.23;61.20;101679.72;5016853;28;45686;-72
2023/05/23 06:51:25;;;;;;;;;15.33;13.67;;;;;17.19;61.09;101676.22;5015743;28;45950;-74
2023/05/23 06:53:51;;;;;;;;;21.33;17.33;;;;;16.85;60.97;101625.41;5015488;28;45503;-73
2023/05/23 06:56:16;;;;;;;;;28.00;20.67;;;;;17.18;61.28;101693.00;5016471;28;45435;-74
2023/05/23 06:58:45;;;;;;;;;18.33;17.00;;;;;17.30;61.35;101716.69;5018369;28;45519;-76
2023/05/23 07:01:12;;;;;;;;;23.00;16.00;;;;;17.26;61.48;101714.09;4997326;28;46720;-76
2023/05/23 07:03:40;;;;;;;;;20.67;18.67;;;;;17.11;61.22;101671.00;5015487;28;45321;-76
2023/05/23 07:06:13;;;;;;;;;16.33;16.33;;;;;17.41;61.02;101728.94;5014746;28;45389;-72
2023/05/23 07:08:38;;;;;;;;;20.33;19.00;;;;;17.31;60.79;101707.84;5015404;28;45511;-73
2023/05/23 07:11:05;;;;;;;;;24.33;20.33;;;;;17.30;61.29;101714.06;5016855;28;45467;-78
2023/05/23 07:13:31;;;;;;;;;17.00;17.00;;;;;17.33;61.20;101724.59;5014498;28;45550;-75
2023/05/23 07:15:59;;;;;;;;;27.67;23.00;;;;;17.27;60.69;101708.75;5017603;28;45489;-77
2023/05/23 07:18:25;;;;;;;;;15.67;12.00;;;;;17.11;60.80;101704.53;5019500;28;45438;-74
2023/05/23 07:20:51;;;;;;;;;14.33;14.33;;;;;17.07;61.08;101693.09;5018521;28;46554;-73
2023/05/23 07:23:16;;;;;;;;;17.67;15.00;;;;;17.28;61.08;101713.19;5014821;28;45522;-76
2023/05/23 07:25:43;;;;;;;;;19.67;14.00;;;;;17.29;60.81;101714.06;5013076;28;45595;-77
2023/05/23 07:28:12;;;;;;;;;28.00;20.67;;;;;17.37;60.67;101712.22;5018420;28;45435;-80
2023/05/23 07:30:38;;;;;;;;;29.00;21.33;;;;;17.40;60.85;101729.84;5015746;28;46198;-74
2023/05/23 07:33:03;;;;;;;;;23.33;20.67;;;;;17.32;61.22;101751.09;5014272;28;45417;-79
2023/05/23 07:35:29;;;;;;;;;28.67;22.00;;;;;17.12;61.83;101744.22;5014782;28;45541;-73
2023/05/23 07:37:56;;;;;;;;;28.00;22.00;;;;;17.05;62.25;101747.81;5017549;28;45392;-77
2023/05/23 07:40:22;;;;;;;;;23.33;22.00;;;;;16.94;61.91;101750.56;5013469;28;46180;-80
2023/05/23 07:42:48;;;;;;;;;21.33;17.67;;;;;16.99;62.33;101753.19;5011918;28;45463;-70
2023/05/23 07:45:13;;;;;;;;;18.67;15.33;;;;;17.05;62.06;101752.22;5012135;28;45882;-75
2023/05/23 07:47:40;;;;;;;;;20.00;16.50;;;;;16.74;61.75;101686.31;5013888;28;45566;-78
2023/05/23 07:50:06;;;;;;;;;28.67;24.67;;;;;17.19;61.67;101749.47;5012699;28;45503;-79
2023/05/23 07:52:31;;;;;;;;;28.67;25.67;;;;;17.22;61.82;101752.06;5011041;28;47167;-76
2023/05/23 07:54:58;;;;;;;;;31.67;26.33;;;;;17.19;61.60;101747.69;5003192;28;45510;-78
2023/05/23 07:57:25;;;;;;;;;31.33;29.00;;;;;16.98;61.92;101729.34;4999269;28;45422;-79
2023/05/23 07:59:51;;;;;;;;;22.67;21.67;;;;;16.99;62.04;101747.88;4989169;28;46290;-77
2023/05/23 08:02:17;;;;;;;;;17.67;15.00;;;;;17.11;61.62;101757.50;4996531;28;45305;-74
2023/05/23 08:04:44;;;;;;;;;24.33;20.00;;;;;17.21;61.63;101759.16;5014502;28;45372;-76
2023/05/23 08:07:10;;;;;;;;;20.67;18.00;;;;;17.14;61.77;101758.31;4990246;28;45593;-79
2023/05/23 08:09:41;;;;;;;;;27.33;22.00;;;;;17.19;61.62;101766.22;5005592;28;46516;-78
2023/05/23 08:12:09;;;;;;;;;23.67;20.00;;;;;16.82;61.87;101710.06;4998244;28;45498;-80
2023/05/23 08:14:35;;;;;;;;;27.00;24.33;;;;;17.08;61.76;101757.50;5001895;28;45534;-80
2023/05/23 08:17:02;;;;;;;;;25.67;20.00;;;;;17.13;61.72;101768.91;5007722;28;45521;-80
2023/05/23 08:19:30;;;;;;;;;22.67;19.33;;;;;16.94;62.13;101737.34;5005527;28;45544;-76
2023/05/23 08:21:55;;;;;;;;;21.00;17.00;;;;;16.97;62.05;101739.06;5014223;28;45369;-79
2023/05/23 08:24:21;;;;;;;;;23.33;18.67;;;;;17.06;61.80;101754.88;5013470;28;45326;-75
2023/05/23 08:26:48;;;;;;;;;20.00;15.00;;;;;17.23;61.70;101777.69;5004993;28;45493;-78
2023/05/23 08:29:14;;;;;;;;;22.67;18.33;;;;;17.20;61.68;101770.63;5004032;28;46412;-77
2023/05/23 08:31:40;;;;;;;;;20.33;17.00;;;;;17.18;61.69;101777.72;5013749;28;45532;-77
2023/05/23 08:34:06;;;;;;;;;22.00;16.67;;;;;17.11;61.81;101749.53;5014837;28;45412;-75
2023/05/23 08:36:33;;;;;;;;;21.67;17.00;;;;;17.23;61.50;101756.50;5018101;28;45336;-74
2023/05/23 08:38:58;;;;;;;;;20.33;14.67;;;;;17.38;60.89;101773.09;5015791;28;45388;-77
2023/05/23 08:41:26;;;;;;;;;20.33;19.33;;;;;17.17;60.34;101746.81;5013594;28;45438;-76
2023/05/23 08:43:52;;;;;;;;;21.67;18.00;;;;;17.08;60.81;101736.31;5017046;28;45357;-74
2023/05/23 08:46:17;;;;;;;;;21.67;17.33;;;;;17.27;61.10;101768.78;5017764;28;45414;-77
2023/05/23 08:48:50;;;;;;;;;17.67;16.67;;;;;17.25;61.01;101762.63;5012255;28;46746;-77
2023/05/23 08:51:17;;;;;;;;;20.67;16.33;;;;;17.42;61.18;101788.97;5014421;28;45406;-72
2023/05/23 08:53:48;;;;;;;;;21.00;19.33;;;;;17.49;61.28;101770.34;5015380;28;45857;-83
2023/05/23 08:56:15;;;;;;;;;20.00;17.67;;;;;17.56;60.96;101776.47;5017200;28;45452;-71
2023/05/23 08:58:46;;;;;;;;;17.00;14.00;;;;;17.50;61.11;101756.19;5017167;28;46221;-72
2023/05/23 09:01:17;;;;;;;;;22.00;16.00;;;;;17.66;60.61;101775.47;5016505;28;45511;-71
2023/05/23 09:03:43;;;;;;;;;28.00;22.67;;;;;17.66;60.83;101771.94;5013490;28;45422;-71
2023/05/23 09:06:10;;;;;;;;;18.33;16.67;;;;;17.71;60.77;101773.66;5012445;28;45986;-79
2023/05/23 09:08:37;;;;;;;;;23.67;17.67;;;;;17.67;60.60;101781.63;4995072;28;46383;-80
2023/05/23 09:11:04;;;;;;;;;19.00;17.33;;;;;17.52;60.87;101754.41;5013373;28;45285;-77
2023/05/23 09:13:31;;;;;;;;;22.00;18.33;;;;;17.76;60.81;101787.72;5013733;28;45578;-77
2023/05/23 09:16:02;;;;;;;;;22.00;17.67;;;;;17.75;60.57;101782.44;5016563;28;45428;-76
2023/05/23 09:18:37;;;;;;;;;18.67;16.33;;;;;17.87;60.44;101794.69;5013236;28;45960;-79
2023/05/23 09:21:03;;;;;;;;;29.33;22.33;;;;;17.71;60.57;101768.34;4994813;28;45480;-74
2023/05/23 09:23:33;;;;;;;;;21.33;17.33;;;;;17.75;61.34;101795.69;4996024;28;45400;-71
2023/05/23 09:26:09;;;;;;;;;26.33;19.67;;;;;17.65;60.72;101786.94;5014130;28;45523;-76
2023/05/23 09:28:36;;;;;;;;;25.33;23.33;;;;;17.74;60.97;101796.56;5015630;28;46633;-79
2023/05/23 09:31:07;;;;;;;;;23.33;19.67;;;;;17.71;61.12;101791.31;5015979;28;45430;-70
2023/05/23 09:33:44;;;;;;;;;19.33;17.00;;;;;17.62;60.78;101772.88;4996322;28;45815;-72
2023/05/23 09:36:10;;;;;;;;;18.67;13.33;;;;;17.58;61.02;101764.97;4995752;28;45882;-69
2023/05/23 09:38:44;;;;;;;;;21.67;15.33;;;;;17.64;60.88;101760.50;5014619;28;46072;-81
2023/05/23 09:41:13;;;;;;;;;27.33;24.67;;;;;17.88;60.64;101797.34;5010729;28;45462;-73
2023/05/23 09:43:53;;;;;;;;;29.67;24.67;;;;;17.75;60.54;101785.09;4995830;28;45555;-73
2023/05/23 09:46:20;;;;;;;;;26.67;22.67;;;;;17.77;60.91;101789.50;4978723;28;45461;-74
2023/05/23 09:48:51;;;;;;;;;26.00;21.00;;;;;17.61;60.36;101758.75;4996356;28;46025;-72
2023/05/23 09:51:21;;;;;;;;;30.67;25.67;;;;;17.73;60.74;101790.41;4996611;28;45499;-70
2023/05/23 09:53:47;;;;;;;;;26.33;22.33;;;;;17.80;60.69;101785.94;4984874;28;45682;-70
2023/05/23 09:56:17;;;;;;;;;32.75;24.50;;;;;17.82;60.18;101797.41;5014959;28;45436;-72
2023/05/23 09:58:47;;;;;;;;;21.67;18.33;;;;;17.73;60.62;101793.06;5015758;28;45446;-73
2023/05/23 10:01:13;;;;;;;;;22.00;19.67;;;;;17.70;61.00;101789.53;5015933;28;45456;-71
2023/05/23 10:03:48;;;;;;;;;27.00;22.00;;;;;17.68;61.17;101800.19;5015782;28;45472;-72
2023/05/23 10:06:28;;;;;;;;;20.33;15.33;;;;;17.65;62.04;101781.66;4996234;28;45440;-73
2023/05/23 10:08:59;;;;;;;;;31.00;22.33;;;;;17.70;60.69;101766.59;4995962;28;46621;-72
2023/05/23 10:11:33;;;;;;;;;24.00;17.67;;;;;18.01;60.21;101792.78;4995943;28;45730;-71
2023/05/23 10:14:08;;;;;;;;;24.00;18.67;;;;;18.21;59.58;101790.75;4996046;28;45377;-72
2023/05/23 10:16:36;;;;;;;;;26.33;20.33;;;;;18.29;59.15;101797.72;4996137;28;45449;-71
2023/05/23 10:19:27;;;;;;;;;21.00;17.00;;;;;18.31;59.53;101793.28;4997836;28;46336;-73
2023/05/23 10:21:59;;;;;;;;;17.67;16.67;;;;;18.36;58.34;101802.91;4996870;28;45542;-72
2023/05/23 10:24:26;;;;;;;;;16.33;14.00;;;;;18.40;58.16;101803.78;4995492;28;45445;-74
2023/05/23 10:26:54;;;;;;;;;22.67;16.67;;;;;18.33;56.94;101802.97;4997000;28;45513;-73
2023/05/23 10:29:23;;;;;;;;;18.33;15.00;;;;;18.29;57.63;101787.13;5006900;28;46631;-71
2023/05/23 10:31:51;;;;;;;;;18.33;15.67;;;;;18.31;57.26;101791.50;5015123;28;45959;-72
2023/05/23 10:34:40;;;;;;;;;19.00;16.67;;;;;18.26;57.22;101781.84;5015621;28;45734;-72
2023/05/23 10:37:09;;;;;;;;;20.67;16.33;;;;;18.33;57.42;101794.13;5019931;28;45428;-70
2023/05/23 10:39:53;;;;;;;;;23.00;16.67;;;;;18.32;57.89;101801.22;5018028;28;46106;-69
2023/05/23 10:42:46;;;;;;;;;22.67;21.00;;;;;18.23;57.75;101788.09;5015200;28;45658;-70
2023/05/23 10:45:17;;;;;;;;;19.67;16.67;;;;;18.25;58.07;101804.84;5015353;28;45411;-72
2023/05/23 10:47:42;;;;;;;;;24.00;18.67;;;;;18.15;58.12;101787.28;5015311;28;45749;-72
2023/05/23 10:50:13;;;;;;;;;17.67;16.67;;;;;18.29;57.90;101805.69;5015137;28;45531;-70
2023/05/23 10:52:40;;;;;;;;;26.67;24.33;;;;;18.23;57.59;101782.78;5017764;28;45520;-70
2023/05/23 10:55:19;;;;;;;;;31.33;23.33;;;;;18.30;58.00;101791.53;5016411;28;45530;-71
2023/05/23 10:57:45;;;;;;;;;19.67;18.33;;;;;18.33;57.72;101796.78;5015147;28;45460;-71
2023/05/23 11:00:15;;;;;;;;;22.67;17.67;;;;;18.36;57.61;101788.78;5014874;28;46307;-72
2023/05/23 11:02:54;;;;;;;;;34.33;30.00;;;;;18.50;58.56;101793.91;5015189;28;45384;-71
2023/05/23 11:05:23;;;;;;;;;65.25;50.25;;;;;18.49;59.17;101779.78;5015320;28;45250;-69
2023/05/23 11:08:13;;;;;;;;;114.67;95.00;;;;;18.59;58.37;101792.00;5018260;28;45464;-71
2023/05/23 11:11:11;;;;;;;;;83.75;69.00;;;;;18.64;57.89;101791.94;5028228;28;45522;-69
2023/05/23 11:13:52;;;;;;;;;56.50;46.00;;;;;18.74;57.26;101792.66;5016398;28;45304;-70